sensor_id;sensor_type;location;lat;lon;timestamp;P1;durP1;ratioP1;P2;durP2;ratioP2
65641;SDS011;52340;-6.720;108.544;2022-08-11T00:33:59;37.33;;;23.45;;
65641;SDS011;52340;-6.720;108.544;2022-08-11T00:38:28;37.22;;;21.30;;
65641;SDS011;52340;-6.720;108.544;2022-08-11T00:40:32;34.30;;;21.60;;
65641;SDS011;52340;-6.720;108.544;2022-08-11T00:41:39;39.85;;;21.00;;
65641;SDS011;52340;-6.720;108.544;2022-08-11T00:42:49;37.80;;;21.27;;
65641;SDS011;52340;-6.720;108.544;2022-08-11T00:45:12;31.10;;;19.70;;
65641;SDS011;52340;-6.720;108.544;2022-08-11T01:00:12;32.63;;;16.98;;
65641;SDS011;52340;-6.720;108.544;2022-08-11T01:02:24;31.45;;;17.20;;
65641;SDS011;52340;-6.720;108.544;2022-08-11T01:03:33;30.55;;;18.60;;
65641;SDS011;52340;-6.720;108.544;2022-08-11T02:00:47;21.40;;;12.75;;
65641;SDS011;52340;-6.720;108.544;2022-08-11T02:09:58;22.33;;;14.57;;
65641;SDS011;52340;-6.720;108.544;2022-08-11T02:11:21;20.83;;;13.90;;
65641;SDS011;52340;-6.720;108.544;2022-08-11T02:12:35;18.85;;;13.05;;
65641;SDS011;52340;-6.720;108.544;2022-08-11T02:13:40;21.17;;;13.45;;
65641;SDS011;52340;-6.720;108.544;2022-08-11T02:14:47;19.48;;;13.73;;
65641;SDS011;52340;-6.720;108.544;2022-08-11T02:16:03;20.65;;;13.68;;
65641;SDS011;52340;-6.720;108.544;2022-08-11T02:17:08;21.50;;;12.65;;
65641;SDS011;52340;-6.720;108.544;2022-08-11T02:19:23;26.70;;;13.90;;
65641;SDS011;52340;-6.720;108.544;2022-08-11T02:20:41;24.13;;;13.10;;
65641;SDS011;52340;-6.720;108.544;2022-08-11T02:21:43;27.42;;;14.38;;
65641;SDS011;52340;-6.720;108.544;2022-08-11T02:22:50;25.70;;;14.38;;
65641;SDS011;52340;-6.720;108.544;2022-08-11T02:23:57;19.52;;;13.18;;
65641;SDS011;52340;-6.720;108.544;2022-08-11T02:26:04;22.20;;;13.17;;
65641;SDS011;52340;-6.720;108.544;2022-08-11T02:27:05;23.70;;;12.88;;
65641;SDS011;52340;-6.720;108.544;2022-08-11T02:30:30;24.42;;;12.57;;
65641;SDS011;52340;-6.720;108.544;2022-08-11T02:32:38;19.05;;;10.95;;
65641;SDS011;52340;-6.720;108.544;2022-08-11T02:33:40;15.55;;;9.95;;
65641;SDS011;52340;-6.720;108.544;2022-08-11T02:35:56;17.60;;;10.45;;
65641;SDS011;52340;-6.720;108.544;2022-08-11T02:37:02;16.50;;;9.55;;
65641;SDS011;52340;-6.720;108.544;2022-08-11T02:38:12;16.02;;;10.05;;
65641;SDS011;52340;-6.720;108.544;2022-08-11T02:44:47;18.38;;;11.02;;
65641;SDS011;52340;-6.720;108.544;2022-08-11T02:46:00;18.52;;;10.82;;
65641;SDS011;52340;-6.720;108.544;2022-08-11T02:47:23;18.10;;;10.25;;
65641;SDS011;52340;-6.720;108.544;2022-08-11T02:48:38;15.23;;;9.70;;
65641;SDS011;52340;-6.720;108.544;2022-08-11T02:49:49;15.05;;;9.38;;
65641;SDS011;52340;-6.720;108.544;2022-08-11T02:50:57;16.00;;;9.18;;
65641;SDS011;52340;-6.720;108.544;2022-08-11T02:52:08;20.67;;;9.57;;
65641;SDS011;52340;-6.720;108.544;2022-08-11T02:54:20;17.95;;;9.90;;
65641;SDS011;52340;-6.720;108.544;2022-08-11T02:55:26;18.60;;;10.95;;
65641;SDS011;52340;-6.720;108.544;2022-08-11T02:57:32;17.30;;;10.57;;
65641;SDS011;52340;-6.720;108.544;2022-08-11T02:58:37;18.42;;;10.60;;
65641;SDS011;52340;-6.720;108.544;2022-08-11T02:59:49;16.88;;;10.93;;
65641;SDS011;52340;-6.720;108.544;2022-08-11T03:00:54;17.98;;;10.80;;
65641;SDS011;52340;-6.720;108.544;2022-08-11T03:02:02;22.23;;;11.85;;
65641;SDS011;52340;-6.720;108.544;2022-08-11T03:06:28;17.98;;;10.63;;
65641;SDS011;52340;-6.720;108.544;2022-08-11T03:09:48;15.63;;;9.90;;
65641;SDS011;52340;-6.720;108.544;2022-08-11T03:10:55;17.95;;;10.23;;
65641;SDS011;52340;-6.720;108.544;2022-08-11T03:12:03;15.00;;;10.20;;
65641;SDS011;52340;-6.720;108.544;2022-08-11T03:13:10;16.30;;;10.57;;
65641;SDS011;52340;-6.720;108.544;2022-08-11T03:14:19;17.90;;;10.02;;
65641;SDS011;52340;-6.720;108.544;2022-08-11T03:15:26;15.40;;;10.00;;
65641;SDS011;52340;-6.720;108.544;2022-08-11T03:16:31;15.68;;;9.82;;
65641;SDS011;52340;-6.720;108.544;2022-08-11T03:17:39;15.83;;;9.80;;
65641;SDS011;52340;-6.720;108.544;2022-08-11T03:18:44;13.30;;;10.10;;
65641;SDS011;52340;-6.720;108.544;2022-08-11T03:19:53;15.88;;;10.23;;
65641;SDS011;52340;-6.720;108.544;2022-08-11T03:21:05;18.83;;;10.48;;
65641;SDS011;52340;-6.720;108.544;2022-08-11T03:22:12;17.10;;;10.65;;
65641;SDS011;52340;-6.720;108.544;2022-08-11T03:24:14;15.93;;;10.63;;
65641;SDS011;52340;-6.720;108.544;2022-08-11T03:25:18;16.45;;;10.20;;
65641;SDS011;52340;-6.720;108.544;2022-08-11T03:26:22;16.02;;;11.05;;
65641;SDS011;52340;-6.720;108.544;2022-08-11T03:28:35;16.58;;;11.02;;
65641;SDS011;52340;-6.720;108.544;2022-08-11T03:29:43;18.45;;;11.38;;
65641;SDS011;52340;-6.720;108.544;2022-08-11T03:30:49;17.80;;;11.93;;
65641;SDS011;52340;-6.720;108.544;2022-08-11T03:32:59;20.23;;;12.23;;
65641;SDS011;52340;-6.720;108.544;2022-08-11T03:35:20;17.95;;;12.52;;
65641;SDS011;52340;-6.720;108.544;2022-08-11T03:36:27;18.52;;;12.40;;
65641;SDS011;52340;-6.720;108.544;2022-08-11T03:37:44;20.27;;;13.65;;
65641;SDS011;52340;-6.720;108.544;2022-08-11T03:38:55;19.73;;;12.80;;
65641;SDS011;52340;-6.720;108.544;2022-08-11T03:40:09;18.05;;;13.07;;
65641;SDS011;52340;-6.720;108.544;2022-08-11T03:42:21;21.58;;;13.18;;
65641;SDS011;52340;-6.720;108.544;2022-08-11T03:43:33;20.80;;;13.93;;
65641;SDS011;52340;-6.720;108.544;2022-08-11T03:44:51;22.67;;;14.35;;
65641;SDS011;52340;-6.720;108.544;2022-08-11T03:46:07;25.50;;;15.80;;
65641;SDS011;52340;-6.720;108.544;2022-08-11T03:48:24;22.13;;;14.82;;
65641;SDS011;52340;-6.720;108.544;2022-08-11T03:49:33;23.63;;;15.03;;
65641;SDS011;52340;-6.720;108.544;2022-08-11T03:50:46;23.50;;;15.40;;
65641;SDS011;52340;-6.720;108.544;2022-08-11T03:51:52;23.20;;;15.55;;
65641;SDS011;52340;-6.720;108.544;2022-08-11T03:54:09;21.73;;;15.00;;
65641;SDS011;52340;-6.720;108.544;2022-08-11T03:55:16;22.77;;;14.63;;
65641;SDS011;52340;-6.720;108.544;2022-08-11T04:00:08;21.08;;;13.77;;
65641;SDS011;52340;-6.720;108.544;2022-08-11T04:01:37;22.42;;;13.93;;
65641;SDS011;52340;-6.720;108.544;2022-08-11T04:04:29;22.05;;;14.18;;
65641;SDS011;52340;-6.720;108.544;2022-08-11T04:11:43;33.55;;;22.85;;
65641;SDS011;52340;-6.720;108.544;2022-08-11T04:13:08;38.30;;;24.50;;
65641;SDS011;52340;-6.720;108.544;2022-08-11T04:14:41;38.33;;;23.60;;
65641;SDS011;52340;-6.720;108.544;2022-08-11T04:17:00;29.80;;;19.33;;
65641;SDS011;52340;-6.720;108.544;2022-08-11T04:19:46;24.85;;;15.88;;
65641;SDS011;52340;-6.720;108.544;2022-08-11T04:20:59;25.23;;;17.42;;
65641;SDS011;52340;-6.720;108.544;2022-08-11T04:22:26;22.88;;;14.20;;
65641;SDS011;52340;-6.720;108.544;2022-08-11T04:25:15;24.60;;;16.20;;
65641;SDS011;52340;-6.720;108.544;2022-08-11T04:26:34;24.83;;;15.85;;
65641;SDS011;52340;-6.720;108.544;2022-08-11T04:29:07;23.88;;;16.55;;
65641;SDS011;52340;-6.720;108.544;2022-08-11T04:32:20;22.00;;;14.40;;
65641;SDS011;52340;-6.720;108.544;2022-08-11T04:33:39;23.70;;;15.30;;
65641;SDS011;52340;-6.720;108.544;2022-08-11T04:36:10;18.88;;;13.70;;
65641;SDS011;52340;-6.720;108.544;2022-08-11T04:37:33;21.98;;;14.25;;
65641;SDS011;52340;-6.720;108.544;2022-08-11T04:44:28;18.42;;;11.88;;
65641;SDS011;52340;-6.720;108.544;2022-08-11T04:49:57;16.58;;;11.10;;
65641;SDS011;52340;-6.720;108.544;2022-08-11T04:51:04;17.08;;;10.50;;
65641;SDS011;52340;-6.720;108.544;2022-08-11T04:52:35;19.00;;;10.75;;
65641;SDS011;52340;-6.720;108.544;2022-08-11T04:59:22;17.70;;;10.73;;
65641;SDS011;52340;-6.720;108.544;2022-08-11T05:00:40;20.83;;;11.77;;
65641;SDS011;52340;-6.720;108.544;2022-08-11T05:01:58;17.92;;;11.68;;
65641;SDS011;52340;-6.720;108.544;2022-08-11T05:03:24;16.67;;;11.02;;
65641;SDS011;52340;-6.720;108.544;2022-08-11T05:05:49;16.55;;;9.98;;
65641;SDS011;52340;-6.720;108.544;2022-08-11T05:09:59;17.42;;;10.45;;
65641;SDS011;52340;-6.720;108.544;2022-08-11T05:11:16;17.67;;;9.93;;
65641;SDS011;52340;-6.720;108.544;2022-08-11T05:12:30;17.92;;;10.88;;
65641;SDS011;52340;-6.720;108.544;2022-08-11T05:13:40;18.52;;;11.18;;
65641;SDS011;52340;-6.720;108.544;2022-08-11T05:14:48;16.13;;;10.30;;
65641;SDS011;52340;-6.720;108.544;2022-08-11T05:16:53;16.10;;;10.07;;
65641;SDS011;52340;-6.720;108.544;2022-08-11T05:17:57;15.18;;;9.98;;
65641;SDS011;52340;-6.720;108.544;2022-08-11T05:19:02;15.63;;;10.50;;
65641;SDS011;52340;-6.720;108.544;2022-08-11T05:20:07;19.88;;;10.50;;
65641;SDS011;52340;-6.720;108.544;2022-08-11T05:21:10;15.50;;;10.25;;
65641;SDS011;52340;-6.720;108.544;2022-08-11T05:22:13;15.65;;;9.85;;
65641;SDS011;52340;-6.720;108.544;2022-08-11T05:23:17;13.63;;;9.20;;
65641;SDS011;52340;-6.720;108.544;2022-08-11T05:24:22;15.38;;;10.10;;
65641;SDS011;52340;-6.720;108.544;2022-08-11T05:25:28;19.52;;;11.50;;
65641;SDS011;52340;-6.720;108.544;2022-08-11T05:26:35;16.65;;;10.57;;
65641;SDS011;52340;-6.720;108.544;2022-08-11T05:27:44;18.38;;;11.05;;
65641;SDS011;52340;-6.720;108.544;2022-08-11T05:28:53;23.95;;;12.18;;
65641;SDS011;52340;-6.720;108.544;2022-08-11T05:32:10;22.35;;;11.40;;
65641;SDS011;52340;-6.720;108.544;2022-08-11T05:33:17;19.15;;;11.00;;
65641;SDS011;52340;-6.720;108.544;2022-08-11T05:34:26;18.90;;;10.63;;
65641;SDS011;52340;-6.720;108.544;2022-08-11T05:35:30;18.45;;;10.52;;
65641;SDS011;52340;-6.720;108.544;2022-08-11T05:37:38;16.80;;;10.05;;
65641;SDS011;52340;-6.720;108.544;2022-08-11T05:38:48;17.27;;;10.23;;
65641;SDS011;52340;-6.720;108.544;2022-08-11T05:39:53;18.90;;;10.15;;
65641;SDS011;52340;-6.720;108.544;2022-08-11T05:40:57;16.88;;;9.68;;
65641;SDS011;52340;-6.720;108.544;2022-08-11T05:41:59;15.85;;;9.95;;
65641;SDS011;52340;-6.720;108.544;2022-08-11T05:43:06;15.52;;;9.30;;
65641;SDS011;52340;-6.720;108.544;2022-08-11T05:44:10;15.25;;;9.65;;
65641;SDS011;52340;-6.720;108.544;2022-08-11T05:45:13;15.93;;;9.85;;
65641;SDS011;52340;-6.720;108.544;2022-08-11T05:46:18;16.52;;;9.90;;
65641;SDS011;52340;-6.720;108.544;2022-08-11T05:47:31;15.23;;;9.90;;
65641;SDS011;52340;-6.720;108.544;2022-08-11T05:49:39;18.40;;;10.55;;
65641;SDS011;52340;-6.720;108.544;2022-08-11T05:50:41;16.88;;;9.90;;
65641;SDS011;52340;-6.720;108.544;2022-08-11T05:51:48;17.05;;;10.20;;
65641;SDS011;52340;-6.720;108.544;2022-08-11T05:52:50;17.20;;;10.30;;
65641;SDS011;52340;-6.720;108.544;2022-08-11T05:53:53;18.40;;;11.07;;
65641;SDS011;52340;-6.720;108.544;2022-08-11T05:54:59;17.83;;;11.20;;
65641;SDS011;52340;-6.720;108.544;2022-08-11T05:56:03;16.60;;;10.70;;
65641;SDS011;52340;-6.720;108.544;2022-08-11T05:57:06;19.50;;;10.95;;
65641;SDS011;52340;-6.720;108.544;2022-08-11T05:58:08;18.90;;;11.38;;
65641;SDS011;52340;-6.720;108.544;2022-08-11T05:59:13;19.42;;;10.77;;
65641;SDS011;52340;-6.720;108.544;2022-08-11T06:00:16;20.63;;;10.90;;
65641;SDS011;52340;-6.720;108.544;2022-08-11T06:01:23;17.35;;;10.57;;
65641;SDS011;52340;-6.720;108.544;2022-08-11T06:02:27;21.17;;;13.00;;
65641;SDS011;52340;-6.720;108.544;2022-08-11T06:03:30;17.20;;;10.73;;
65641;SDS011;52340;-6.720;108.544;2022-08-11T06:04:33;18.27;;;11.07;;
65641;SDS011;52340;-6.720;108.544;2022-08-11T06:05:36;17.75;;;10.82;;
65641;SDS011;52340;-6.720;108.544;2022-08-11T06:06:38;17.95;;;11.13;;
65641;SDS011;52340;-6.720;108.544;2022-08-11T06:07:53;20.30;;;10.85;;
65641;SDS011;52340;-6.720;108.544;2022-08-11T06:08:56;23.27;;;10.93;;
65641;SDS011;52340;-6.720;108.544;2022-08-11T06:09:58;17.10;;;10.13;;
65641;SDS011;52340;-6.720;108.544;2022-08-11T06:11:01;17.60;;;10.20;;
65641;SDS011;52340;-6.720;108.544;2022-08-11T06:12:05;15.52;;;9.73;;
65641;SDS011;52340;-6.720;108.544;2022-08-11T06:13:08;16.50;;;10.05;;
65641;SDS011;52340;-6.720;108.544;2022-08-11T06:14:11;18.13;;;10.07;;
65641;SDS011;52340;-6.720;108.544;2022-08-11T06:15:13;17.63;;;10.13;;
65641;SDS011;52340;-6.720;108.544;2022-08-11T06:16:19;15.50;;;10.02;;
65641;SDS011;52340;-6.720;108.544;2022-08-11T06:17:23;17.35;;;9.60;;
65641;SDS011;52340;-6.720;108.544;2022-08-11T06:18:28;16.85;;;10.48;;
65641;SDS011;52340;-6.720;108.544;2022-08-11T06:19:31;17.25;;;10.30;;
65641;SDS011;52340;-6.720;108.544;2022-08-11T06:20:34;15.43;;;9.93;;
65641;SDS011;52340;-6.720;108.544;2022-08-11T06:21:47;17.65;;;10.20;;
65641;SDS011;52340;-6.720;108.544;2022-08-11T06:22:54;16.05;;;10.23;;
65641;SDS011;52340;-6.720;108.544;2022-08-11T06:24:00;15.63;;;9.90;;
65641;SDS011;52340;-6.720;108.544;2022-08-11T06:25:04;19.08;;;9.88;;
65641;SDS011;52340;-6.720;108.544;2022-08-11T06:27:14;16.70;;;10.00;;
65641;SDS011;52340;-6.720;108.544;2022-08-11T06:28:20;17.42;;;10.13;;
65641;SDS011;52340;-6.720;108.544;2022-08-11T06:29:21;16.58;;;10.13;;
65641;SDS011;52340;-6.720;108.544;2022-08-11T06:30:32;15.23;;;9.88;;
65641;SDS011;52340;-6.720;108.544;2022-08-11T06:31:34;15.50;;;10.10;;
65641;SDS011;52340;-6.720;108.544;2022-08-11T06:32:37;17.50;;;10.95;;
65641;SDS011;52340;-6.720;108.544;2022-08-11T06:33:44;16.65;;;10.45;;
65641;SDS011;52340;-6.720;108.544;2022-08-11T06:36:20;18.55;;;10.52;;
65641;SDS011;52340;-6.720;108.544;2022-08-11T06:37:29;17.67;;;11.18;;
65641;SDS011;52340;-6.720;108.544;2022-08-11T06:38:55;20.50;;;12.93;;
65641;SDS011;52340;-6.720;108.544;2022-08-11T06:41:01;20.93;;;12.70;;
65641;SDS011;52340;-6.720;108.544;2022-08-11T06:42:05;21.90;;;11.80;;
65641;SDS011;52340;-6.720;108.544;2022-08-11T06:43:14;15.10;;;10.20;;
65641;SDS011;52340;-6.720;108.544;2022-08-11T06:44:21;16.35;;;10.38;;
65641;SDS011;52340;-6.720;108.544;2022-08-11T06:45:28;18.05;;;11.27;;
65641;SDS011;52340;-6.720;108.544;2022-08-11T06:46:33;15.73;;;10.20;;
65641;SDS011;52340;-6.720;108.544;2022-08-11T06:47:41;17.75;;;10.55;;
65641;SDS011;52340;-6.720;108.544;2022-08-11T06:48:47;16.98;;;10.80;;
65641;SDS011;52340;-6.720;108.544;2022-08-11T06:49:49;20.48;;;11.25;;
65641;SDS011;52340;-6.720;108.544;2022-08-11T06:50:51;19.15;;;12.18;;
65641;SDS011;52340;-6.720;108.544;2022-08-11T06:57:43;22.33;;;12.63;;
65641;SDS011;52340;-6.720;108.544;2022-08-11T07:01:08;15.23;;;9.45;;
65641;SDS011;52340;-6.720;108.544;2022-08-11T07:40:20;21.50;;;11.38;;
65641;SDS011;52340;-6.720;108.544;2022-08-11T07:42:29;20.38;;;10.77;;
65641;SDS011;52340;-6.720;108.544;2022-08-11T07:43:31;18.73;;;10.85;;
65641;SDS011;52340;-6.720;108.544;2022-08-11T07:44:35;17.90;;;10.65;;
65641;SDS011;52340;-6.720;108.544;2022-08-11T07:45:41;20.58;;;11.48;;
65641;SDS011;52340;-6.720;108.544;2022-08-11T07:46:44;18.90;;;10.73;;
65641;SDS011;52340;-6.720;108.544;2022-08-11T07:48:52;19.35;;;10.13;;
65641;SDS011;52340;-6.720;108.544;2022-08-11T07:49:56;16.95;;;10.27;;
65641;SDS011;52340;-6.720;108.544;2022-08-11T07:52:08;16.05;;;8.98;;
65641;SDS011;52340;-6.720;108.544;2022-08-11T07:54:15;16.00;;;9.18;;
65641;SDS011;52340;-6.720;108.544;2022-08-11T07:56:28;16.02;;;9.02;;
65641;SDS011;52340;-6.720;108.544;2022-08-11T07:58:34;14.05;;;8.90;;
65641;SDS011;52340;-6.720;108.544;2022-08-11T07:59:38;17.13;;;8.63;;
65641;SDS011;52340;-6.720;108.544;2022-08-11T08:08:41;16.90;;;9.20;;
65641;SDS011;52340;-6.720;108.544;2022-08-11T08:28:23;16.00;;;9.65;;
65641;SDS011;52340;-6.720;108.544;2022-08-11T08:32:37;16.42;;;10.55;;
65641;SDS011;52340;-6.720;108.544;2022-08-11T08:34:50;17.48;;;11.48;;
65641;SDS011;52340;-6.720;108.544;2022-08-11T08:35:53;19.38;;;11.27;;
65641;SDS011;52340;-6.720;108.544;2022-08-11T08:41:21;15.23;;;9.57;;
65641;SDS011;52340;-6.720;108.544;2022-08-11T08:54:54;19.10;;;9.85;;
65641;SDS011;52340;-6.720;108.544;2022-08-11T08:56:24;17.10;;;9.70;;
65641;SDS011;52340;-6.720;108.544;2022-08-11T08:57:27;18.25;;;9.88;;
65641;SDS011;52340;-6.720;108.544;2022-08-11T09:03:09;15.63;;;8.98;;
65641;SDS011;52340;-6.720;108.544;2022-08-11T09:04:10;13.57;;;8.80;;
65641;SDS011;52340;-6.720;108.544;2022-08-11T09:05:13;13.90;;;8.90;;
65641;SDS011;52340;-6.720;108.544;2022-08-11T09:07:27;14.52;;;10.02;;
65641;SDS011;52340;-6.720;108.544;2022-08-11T09:08:30;18.45;;;11.88;;
65641;SDS011;52340;-6.720;108.544;2022-08-11T09:09:32;16.38;;;10.35;;
65641;SDS011;52340;-6.720;108.544;2022-08-11T09:10:35;19.48;;;10.95;;
65641;SDS011;52340;-6.720;108.544;2022-08-11T09:15:09;23.38;;;13.13;;
65641;SDS011;52340;-6.720;108.544;2022-08-11T09:17:22;17.75;;;11.93;;
65641;SDS011;52340;-6.720;108.544;2022-08-11T09:26:37;15.63;;;9.85;;
65641;SDS011;52340;-6.720;108.544;2022-08-11T09:40:46;13.10;;;9.02;;
65641;SDS011;52340;-6.720;108.544;2022-08-11T09:43:01;17.20;;;10.00;;
65641;SDS011;52340;-6.720;108.544;2022-08-11T09:44:04;17.25;;;11.10;;
65641;SDS011;52340;-6.720;108.544;2022-08-11T09:46:13;19.58;;;11.68;;
65641;SDS011;52340;-6.720;108.544;2022-08-11T09:47:16;17.20;;;10.65;;
65641;SDS011;52340;-6.720;108.544;2022-08-11T09:48:20;21.40;;;11.32;;
65641;SDS011;52340;-6.720;108.544;2022-08-11T09:49:21;18.10;;;11.13;;
65641;SDS011;52340;-6.720;108.544;2022-08-11T09:50:23;15.95;;;10.30;;
65641;SDS011;52340;-6.720;108.544;2022-08-11T09:51:25;14.98;;;9.93;;
65641;SDS011;52340;-6.720;108.544;2022-08-11T09:54:47;16.38;;;9.88;;
65641;SDS011;52340;-6.720;108.544;2022-08-11T09:58:12;15.95;;;9.80;;
65641;SDS011;52340;-6.720;108.544;2022-08-11T10:08:35;18.00;;;10.30;;
65641;SDS011;52340;-6.720;108.544;2022-08-11T10:40:15;16.80;;;11.27;;
65641;SDS011;52340;-6.720;108.544;2022-08-11T14:05:14;19.35;;;11.70;;
65641;SDS011;52340;-6.720;108.544;2022-08-11T14:46:02;17.92;;;11.32;;
65641;SDS011;52340;-6.720;108.544;2022-08-11T14:50:23;17.98;;;11.07;;
65641;SDS011;52340;-6.720;108.544;2022-08-11T14:51:27;19.33;;;11.85;;
65641;SDS011;52340;-6.720;108.544;2022-08-11T14:52:37;20.38;;;12.68;;
65641;SDS011;52340;-6.720;108.544;2022-08-11T14:53:47;20.33;;;12.50;;
65641;SDS011;52340;-6.720;108.544;2022-08-11T14:54:51;20.20;;;12.95;;
65641;SDS011;52340;-6.720;108.544;2022-08-11T14:55:55;22.13;;;13.27;;
65641;SDS011;52340;-6.720;108.544;2022-08-11T14:56:57;18.98;;;12.73;;
65641;SDS011;52340;-6.720;108.544;2022-08-11T14:58:00;19.63;;;12.60;;
65641;SDS011;52340;-6.720;108.544;2022-08-11T14:59:02;19.23;;;12.70;;
65641;SDS011;52340;-6.720;108.544;2022-08-11T15:00:06;18.80;;;12.30;;
65641;SDS011;52340;-6.720;108.544;2022-08-11T15:01:14;19.70;;;12.68;;
65641;SDS011;52340;-6.720;108.544;2022-08-11T15:02:19;21.17;;;12.80;;
65641;SDS011;52340;-6.720;108.544;2022-08-11T15:03:22;19.23;;;12.70;;
65641;SDS011;52340;-6.720;108.544;2022-08-11T15:04:25;19.52;;;12.98;;
65641;SDS011;52340;-6.720;108.544;2022-08-11T15:05:29;20.98;;;12.70;;
65641;SDS011;52340;-6.720;108.544;2022-08-11T15:06:32;18.98;;;13.00;;
65641;SDS011;52340;-6.720;108.544;2022-08-11T15:07:34;19.83;;;13.38;;
65641;SDS011;52340;-6.720;108.544;2022-08-11T15:08:37;20.25;;;13.15;;
65641;SDS011;52340;-6.720;108.544;2022-08-11T15:09:40;20.02;;;12.90;;
65641;SDS011;52340;-6.720;108.544;2022-08-11T15:10:43;19.42;;;13.50;;
65641;SDS011;52340;-6.720;108.544;2022-08-11T15:11:46;21.23;;;13.80;;
65641;SDS011;52340;-6.720;108.544;2022-08-11T15:12:49;21.77;;;12.95;;
65641;SDS011;52340;-6.720;108.544;2022-08-11T15:13:51;19.45;;;13.35;;
65641;SDS011;52340;-6.720;108.544;2022-08-11T15:14:55;20.60;;;13.30;;
65641;SDS011;52340;-6.720;108.544;2022-08-11T15:15:58;21.02;;;13.30;;
65641;SDS011;52340;-6.720;108.544;2022-08-11T15:17:05;19.38;;;13.77;;
65641;SDS011;52340;-6.720;108.544;2022-08-11T15:18:09;22.15;;;13.95;;
65641;SDS011;52340;-6.720;108.544;2022-08-11T15:19:14;21.42;;;13.40;;
65641;SDS011;52340;-6.720;108.544;2022-08-11T15:20:17;20.85;;;14.40;;
65641;SDS011;52340;-6.720;108.544;2022-08-11T15:21:21;22.80;;;14.38;;
65641;SDS011;52340;-6.720;108.544;2022-08-11T15:22:23;22.05;;;14.20;;
65641;SDS011;52340;-6.720;108.544;2022-08-11T15:23:25;22.55;;;15.02;;
65641;SDS011;52340;-6.720;108.544;2022-08-11T15:24:27;22.35;;;14.68;;
65641;SDS011;52340;-6.720;108.544;2022-08-11T15:25:29;24.13;;;15.02;;
65641;SDS011;52340;-6.720;108.544;2022-08-11T15:26:32;23.67;;;14.88;;
65641;SDS011;52340;-6.720;108.544;2022-08-11T15:27:38;23.77;;;15.45;;
65641;SDS011;52340;-6.720;108.544;2022-08-11T15:28:50;23.67;;;15.35;;
65641;SDS011;52340;-6.720;108.544;2022-08-11T15:29:59;23.90;;;15.50;;
65641;SDS011;52340;-6.720;108.544;2022-08-11T15:31:03;22.05;;;15.35;;
65641;SDS011;52340;-6.720;108.544;2022-08-11T15:32:07;26.30;;;15.30;;
65641;SDS011;52340;-6.720;108.544;2022-08-11T15:33:10;22.05;;;14.82;;
65641;SDS011;52340;-6.720;108.544;2022-08-11T15:34:16;23.45;;;15.98;;
65641;SDS011;52340;-6.720;108.544;2022-08-11T15:35:20;24.38;;;14.93;;
65641;SDS011;52340;-6.720;108.544;2022-08-11T15:36:22;23.65;;;15.43;;
65641;SDS011;52340;-6.720;108.544;2022-08-11T15:37:24;24.52;;;16.75;;
65641;SDS011;52340;-6.720;108.544;2022-08-11T15:38:34;25.15;;;15.68;;
65641;SDS011;52340;-6.720;108.544;2022-08-11T15:39:45;26.17;;;15.70;;
65641;SDS011;52340;-6.720;108.544;2022-08-11T15:40:48;21.80;;;15.30;;
65641;SDS011;52340;-6.720;108.544;2022-08-11T15:41:53;23.35;;;15.77;;
65641;SDS011;52340;-6.720;108.544;2022-08-11T15:43:00;23.52;;;15.50;;
65641;SDS011;52340;-6.720;108.544;2022-08-11T15:44:05;25.40;;;16.52;;
65641;SDS011;52340;-6.720;108.544;2022-08-11T15:45:10;26.77;;;16.25;;
65641;SDS011;52340;-6.720;108.544;2022-08-11T15:46:15;26.27;;;16.13;;
65641;SDS011;52340;-6.720;108.544;2022-08-11T15:47:22;28.40;;;16.65;;
65641;SDS011;52340;-6.720;108.544;2022-08-11T15:48:34;25.10;;;15.75;;
65641;SDS011;52340;-6.720;108.544;2022-08-11T15:49:39;28.63;;;16.83;;
65641;SDS011;52340;-6.720;108.544;2022-08-11T15:50:44;30.80;;;15.55;;
65641;SDS011;52340;-6.720;108.544;2022-08-11T15:51:59;23.60;;;15.75;;
65641;SDS011;52340;-6.720;108.544;2022-08-11T15:53:04;23.02;;;15.85;;
65641;SDS011;52340;-6.720;108.544;2022-08-11T15:54:13;23.42;;;14.95;;
65641;SDS011;52340;-6.720;108.544;2022-08-11T15:55:16;21.90;;;15.57;;
65641;SDS011;52340;-6.720;108.544;2022-08-11T15:56:22;23.48;;;14.95;;
65641;SDS011;52340;-6.720;108.544;2022-08-11T15:57:25;23.33;;;15.40;;
65641;SDS011;52340;-6.720;108.544;2022-08-11T15:58:29;22.23;;;14.95;;
65641;SDS011;52340;-6.720;108.544;2022-08-11T15:59:35;22.90;;;15.38;;
65641;SDS011;52340;-6.720;108.544;2022-08-11T16:00:38;22.42;;;15.30;;
65641;SDS011;52340;-6.720;108.544;2022-08-11T16:01:41;22.65;;;14.45;;
65641;SDS011;52340;-6.720;108.544;2022-08-11T16:02:45;24.17;;;14.73;;
65641;SDS011;52340;-6.720;108.544;2022-08-11T16:03:49;21.90;;;15.02;;
65641;SDS011;52340;-6.720;108.544;2022-08-11T16:04:52;20.90;;;14.13;;
65641;SDS011;52340;-6.720;108.544;2022-08-11T16:05:55;24.73;;;15.38;;
65641;SDS011;52340;-6.720;108.544;2022-08-11T16:06:59;23.55;;;14.52;;
65641;SDS011;52340;-6.720;108.544;2022-08-11T16:08:03;22.25;;;15.57;;
65641;SDS011;52340;-6.720;108.544;2022-08-11T16:09:05;25.40;;;15.10;;
65641;SDS011;52340;-6.720;108.544;2022-08-11T16:10:08;21.40;;;14.88;;
65641;SDS011;52340;-6.720;108.544;2022-08-11T16:11:11;22.13;;;14.60;;
65641;SDS011;52340;-6.720;108.544;2022-08-11T16:12:14;22.13;;;14.65;;
65641;SDS011;52340;-6.720;108.544;2022-08-11T16:13:18;24.25;;;15.55;;
65641;SDS011;52340;-6.720;108.544;2022-08-11T16:14:20;20.60;;;14.68;;
65641;SDS011;52340;-6.720;108.544;2022-08-11T16:15:25;22.85;;;15.80;;
65641;SDS011;52340;-6.720;108.544;2022-08-11T16:16:27;22.83;;;15.10;;
65641;SDS011;52340;-6.720;108.544;2022-08-11T16:17:29;23.90;;;15.43;;
65641;SDS011;52340;-6.720;108.544;2022-08-11T16:18:35;25.88;;;15.98;;
65641;SDS011;52340;-6.720;108.544;2022-08-11T16:19:41;22.15;;;15.07;;
65641;SDS011;52340;-6.720;108.544;2022-08-11T16:20:44;24.55;;;16.02;;
65641;SDS011;52340;-6.720;108.544;2022-08-11T16:21:49;23.95;;;16.55;;
65641;SDS011;52340;-6.720;108.544;2022-08-11T16:22:53;26.48;;;17.27;;
65641;SDS011;52340;-6.720;108.544;2022-08-11T16:23:57;28.70;;;18.23;;
65641;SDS011;52340;-6.720;108.544;2022-08-11T16:24:59;26.00;;;18.00;;
65641;SDS011;52340;-6.720;108.544;2022-08-11T16:26:04;28.95;;;18.83;;
65641;SDS011;52340;-6.720;108.544;2022-08-11T16:27:06;27.10;;;19.65;;
65641;SDS011;52340;-6.720;108.544;2022-08-11T16:28:11;26.73;;;19.63;;
65641;SDS011;52340;-6.720;108.544;2022-08-11T16:29:14;28.35;;;18.58;;
65641;SDS011;52340;-6.720;108.544;2022-08-11T16:30:17;27.92;;;18.80;;
65641;SDS011;52340;-6.720;108.544;2022-08-11T16:31:19;27.50;;;18.92;;
65641;SDS011;52340;-6.720;108.544;2022-08-11T16:32:22;26.23;;;18.10;;
65641;SDS011;52340;-6.720;108.544;2022-08-11T16:33:24;26.13;;;18.40;;
65641;SDS011;52340;-6.720;108.544;2022-08-11T16:34:28;28.17;;;18.25;;
65641;SDS011;52340;-6.720;108.544;2022-08-11T16:35:31;25.67;;;16.88;;
65641;SDS011;52340;-6.720;108.544;2022-08-11T16:36:34;25.52;;;17.25;;
65641;SDS011;52340;-6.720;108.544;2022-08-11T16:37:36;26.35;;;17.42;;
65641;SDS011;52340;-6.720;108.544;2022-08-11T16:38:38;28.73;;;17.65;;
65641;SDS011;52340;-6.720;108.544;2022-08-11T16:39:41;25.15;;;17.02;;